.
WxDataArchive / Data Records for 2015-07-24
2015-07-23 July 2015 2015-07-25

Data Records for Friday, 24 July 2015

Time	Temp	Chill	HIndex	Humid	Dewpt	 Wind 	HiWind	WindDir	Rain 	Barom
-----	----	-----	------	-----	-----	------	------	-------	-----	-----
00:00	68.1	68.1	68.1	82	62.4	0	0	---	0.00	29.965 
00:05	67.9	67.9	67.9	82	62.2	0	0	---	0.00	29.965 
00:10	67.8	67.8	67.8	82	62.1	0	0	---	0.00	29.965 
00:15	67.8	67.8	67.8	82	62.1	0	0	---	0.00	29.964 
00:20	67.4	67.4	67.4	83	62.0	0	0	---	0.00	29.964 
00:25	67.3	67.3	67.3	83	62.0	0	0	---	0.00	29.964 
00:30	67.3	67.3	67.3	84	62.3	0	0	---	0.00	29.968 
00:35	67.3	67.3	67.3	84	62.3	0	0	---	0.00	29.968 
00:40	67.3	67.3	67.3	85	62.6	0	0	---	0.00	29.968 
00:45	67.1	67.1	67.1	85	62.4	0	0	---	0.00	29.968 
00:50	67.1	67.1	67.1	85	62.4	0	0	---	0.00	29.968 
00:55	66.9	66.9	66.9	85	62.2	0	0	---	0.00	29.968 
01:00	66.9	66.9	66.9	86	62.6	0	0	---	0.00	29.965 
01:05	66.8	66.8	66.8	86	62.5	0	0	---	0.00	29.965 
01:10	66.6	66.6	66.6	86	62.3	0	0	---	0.00	29.965 
01:15	66.4	66.4	66.4	86	62.1	0	0	---	0.00	29.966 
01:20	66.4	66.4	66.4	86	62.1	0	0	---	0.00	29.966 
01:25	66.3	66.3	66.3	87	62.3	0	0	---	0.00	29.966 
01:30	66.3	66.3	66.3	87	62.3	0	0	---	0.00	29.966 
01:35	66.1	66.1	66.1	87	62.1	0	0	---	0.00	29.966 
01:40	66.0	66.0	66.0	88	62.3	0	0	---	0.00	29.966 
01:45	65.8	65.8	65.8	88	62.1	0	0	---	0.00	29.967 
01:50	65.8	65.8	65.8	88	62.1	0	0	---	0.00	29.967 
01:55	65.6	65.6	65.6	88	61.9	0	0	---	0.00	29.967 
02:00	65.5	65.5	65.5	88	61.8	0	0	---	0.00	29.969 
02:05	65.5	65.5	65.5	88	61.8	0	0	---	0.00	29.969 
02:10	65.3	65.3	65.3	88	61.6	0	0	---	0.00	29.969 
02:15	65.3	65.3	65.3	88	61.6	0	0	---	0.00	29.970 
02:20	65.2	65.2	65.2	89	61.9	0	0	---	0.00	29.970 
02:25	65.0	65.0	65.0	89	61.7	0	0	---	0.00	29.970 
02:30	65.0	65.0	65.0	89	61.7	0	0	---	0.00	29.971 
02:35	64.8	64.8	64.8	89	61.5	0	0	---	0.00	29.971 
02:40	64.8	64.8	64.8	89	61.5	0	0	---	0.00	29.971 
02:45	64.7	64.7	64.7	89	61.4	0	0	---	0.00	29.971 
02:50	64.5	64.5	64.5	90	61.5	0	0	---	0.00	29.971 
02:55	64.5	64.5	64.5	90	61.5	0	0	---	0.00	29.971 
03:00	64.5	64.5	64.5	90	61.5	0	0	---	0.00	29.978 
03:05	64.3	64.3	64.3	90	61.3	0	0	---	0.00	29.978 
03:10	64.3	64.3	64.3	90	61.3	0	0	---	0.00	29.978 
03:15	64.3	64.3	64.3	90	61.3	0	0	---	0.00	29.977 
03:20	64.2	64.2	64.2	91	61.5	0	0	---	0.00	29.977 
03:25	64.2	64.2	64.2	91	61.5	0	0	---	0.00	29.977 
03:30	64.0	64.0	64.0	91	61.3	0	0	---	0.00	29.973 
03:35	64.0	64.0	64.0	91	61.3	0	0	---	0.00	29.973 
03:40	64.0	64.0	64.0	91	61.3	0	0	---	0.00	29.973 
03:45	63.9	63.9	63.9	91	61.2	0	0	---	0.00	29.974 
03:50	63.9	63.9	63.9	91	61.2	0	0	---	0.00	29.974 
03:55	63.7	63.7	63.7	91	61.0	0	0	---	0.00	29.974 
04:00	63.7	63.7	63.7	91	61.0	0	0	---	0.00	29.979 
04:05	63.5	63.5	63.5	92	61.1	0	0	---	0.00	29.979 
04:10	63.5	63.5	63.5	92	61.1	0	0	---	0.00	29.979 
04:15	63.5	63.5	63.5	92	61.1	0	0	---	0.00	29.977 
04:20	63.4	63.4	63.4	92	61.0	0	0	---	0.00	29.977 
04:25	63.4	63.4	63.4	92	61.0	0	0	---	0.00	29.977 
04:30	63.4	63.4	63.4	92	61.0	0	0	---	0.00	29.980 
04:35	63.2	63.2	63.2	92	60.8	0	0	---	0.00	29.980 
04:40	63.2	63.2	63.2	92	60.8	0	0	---	0.00	29.980 
04:45	63.2	63.2	63.2	92	60.8	0	0	---	0.00	29.982 
04:50	63.2	63.2	63.2	92	60.8	0	0	---	0.00	29.982 
04:55	63.2	63.2	63.2	92	60.8	0	0	---	0.00	29.982 
05:00	63.1	63.1	63.1	92	60.7	0	0	---	0.00	29.982 
05:05	63.1	63.1	63.1	92	60.7	0	0	---	0.00	29.982 
05:10	62.9	62.9	62.9	92	60.5	0	0	---	0.00	29.982 
05:15	62.9	62.9	62.9	92	60.5	0	0	---	0.00	29.979 
05:20	62.7	62.7	62.7	92	60.3	0	0	---	0.00	29.979 
05:25	62.7	62.7	62.7	92	60.3	0	0	---	0.00	29.979 
05:30	62.7	62.7	62.7	92	60.3	0	0	---	0.00	29.988 
05:35	62.7	62.7	62.7	93	60.6	0	0	---	0.00	29.988 
05:40	62.7	62.7	62.7	93	60.6	0	0	---	0.00	29.988 
05:45	62.7	62.7	62.7	93	60.6	0	0	---	0.00	29.992 
05:50	62.6	62.6	62.6	93	60.5	0	0	---	0.00	29.992 
05:55	62.6	62.6	62.6	93	60.5	0	0	---	0.00	29.992 
06:00	62.6	62.6	62.6	93	60.5	0	0	---	0.00	29.989 
06:05	62.4	62.4	62.4	93	60.3	0	0	---	0.00	29.989 
06:10	62.4	62.4	62.4	93	60.3	0	0	---	0.00	29.989 
06:15	62.4	62.4	62.4	93	60.3	0	0	---	0.00	29.995 
06:20	62.3	62.3	62.3	93	60.2	0	0	---	0.00	29.995 
06:25	62.3	62.3	62.3	93	60.2	0	0	---	0.00	29.995 
06:30	62.3	62.3	62.3	93	60.2	0	0	---	0.00	30.000 
06:35	62.3	62.3	62.3	93	60.2	0	0	---	0.00	30.000 
06:40	62.3	62.3	62.3	93	60.2	0	0	---	0.00	30.000 
06:45	62.3	62.3	62.3	93	60.2	0	0	---	0.00	30.001 
06:50	62.3	62.3	62.3	93	60.2	0	0	---	0.00	30.001 
06:55	62.4	62.4	62.4	94	60.6	0	0	---	0.00	30.001 
07:00	62.3	62.3	62.3	93	60.2	0	0	---	0.00	30.008 
07:05	62.3	62.3	62.3	94	60.5	0	0	---	0.00	30.008 
07:10	62.4	62.4	62.4	94	60.6	0	0	---	0.00	30.008 
07:15	62.4	62.4	62.4	94	60.6	0	0	---	0.00	30.010 
07:20	62.6	62.6	62.6	94	60.8	0	0	---	0.00	30.010 
07:25	62.7	62.7	62.7	94	60.9	0	0	---	0.00	30.010 
07:30	63.1	63.1	63.1	94	61.3	0	0	---	0.00	30.008 
07:35	63.2	63.2	63.2	94	61.4	0	0	---	0.00	30.008 
07:40	63.5	63.5	63.5	94	61.7	0	0	---	0.00	30.008 
07:45	64.0	64.0	64.0	94	62.2	0	0	---	0.00	30.002 
07:50	64.5	64.5	64.5	94	62.7	0	0	---	0.00	30.002 
07:55	65.2	65.2	65.2	94	63.4	0	0	---	0.00	30.002 
08:00	65.6	65.6	65.6	94	63.8	0	0	---	0.00	30.000 
08:05	66.1	66.1	66.1	94	64.3	0	0	---	0.00	30.000 
08:10	66.8	66.8	66.8	93	64.7	0	0	---	0.00	30.000 
08:15	67.6	67.6	67.6	93	65.5	0	0	---	0.00	30.009 
08:20	68.9	68.9	68.9	91	66.2	0	0	---	0.00	30.009 
08:25	70.3	70.3	70.3	86	65.9	0	0	---	0.00	30.009 
08:30	71.5	71.5	71.5	80	65.0	0	1	90	0.00	30.002 
08:35	72.5	72.5	72.5	76	64.5	0	1	90	0.00	30.002 
08:40	73.5	73.5	73.5	72	63.9	0	1	90	0.00	30.002 
08:45	74.6	74.6	74.6	69	63.7	0	1	90	0.00	29.994 
08:50	75.8	75.8	77.7	66	63.6	0	0	---	0.00	29.994 
08:55	76.8	76.8	78.6	62	62.8	0	1	90	0.00	29.994 
09:00	77.7	77.7	79.3	58	61.7	0	0	---	0.00	30.004 
09:05	78.3	78.3	79.8	56	61.3	0	1	90	0.00	30.004 
09:10	78.5	78.5	79.8	53	59.9	0	1	90	0.00	30.004 
09:15	78.6	78.6	80.0	55	61.1	0	1	90	0.00	30.003 
09:20	78.6	78.6	80.0	55	61.1	0	1	90	0.00	30.003 
09:25	78.8	78.8	80.1	54	60.7	0	2	90	0.00	30.003 
09:30	79.0	79.0	80.0	51	59.3	0	1	90	0.00	30.004 
09:35	79.4	79.4	80.5	52	60.2	0	1	90	0.00	30.004 
09:40	79.2	79.2	80.3	52	60.0	0	1	90	0.00	30.004 
09:45	79.2	79.2	80.0	48	57.8	0	1	90	0.00	30.009 
09:50	79.8	79.8	80.3	46	57.2	0	0	---	0.00	30.009 
09:55	80.3	80.3	80.7	46	57.6	0	1	90	0.00	30.009 
10:00	79.8	79.8	80.5	48	58.3	0	1	90	0.00	30.009 
10:05	79.4	79.4	80.3	50	59.1	0	1	90	0.00	30.009 
10:10	80.1	80.1	81.1	52	60.9	0	1	90	0.00	30.009 
10:15	80.5	80.5	81.2	49	59.6	0	1	90	0.00	30.010 
10:20	80.9	80.9	81.3	47	58.8	0	1	90	0.00	30.010 
10:25	81.2	81.2	81.6	47	59.0	0	1	68	0.00	30.010 
10:30	80.9	80.9	81.3	47	58.8	0	1	68	0.00	30.009 
10:35	81.4	81.4	82.0	49	60.4	0	0	---	0.00	30.009 
10:40	82.2	82.2	82.7	48	60.5	0	2	68	0.00	30.009 
10:45	82.8	82.8	83.3	48	61.1	0	2	68	0.00	30.003 
10:50	83.0	83.0	83.7	49	61.8	0	1	68	0.00	30.003 
10:55	83.0	83.0	83.4	47	60.7	0	1	68	0.00	30.003 
11:00	82.6	82.6	82.8	46	59.7	0	2	68	0.00	30.008 
11:05	81.8	81.8	82.3	48	60.2	0	1	68	0.00	30.008 
11:10	81.4	81.4	82.1	50	60.9	0	2	68	0.00	30.008 
11:15	81.2	81.2	81.8	49	60.2	0	2	68	0.00	30.012 
11:20	81.1	81.1	82.0	51	61.2	1	2	292	0.00	30.012 
11:25	80.9	80.9	81.4	48	59.3	0	2	292	0.00	30.012 
11:30	80.9	80.9	81.5	49	59.9	0	2	292	0.00	30.013 
11:35	81.1	81.1	82.1	52	61.8	0	1	292	0.00	30.013 
11:40	81.1	81.1	81.4	46	58.3	0	2	292	0.00	30.013 
11:45	81.4	81.4	81.8	47	59.2	0	3	292	0.00	30.012 
11:50	81.8	81.8	81.9	45	58.4	0	1	292	0.00	30.012 
11:55	82.0	82.0	82.1	45	58.5	0	1	292	0.00	30.012 
12:00	82.8	82.8	83.3	48	61.1	0	1	292	0.00	30.010 
12:05	82.8	82.8	82.9	45	59.3	0	2	292	0.00	30.010 
12:10	82.8	82.8	82.7	44	58.6	0	2	292	0.00	30.010 
12:15	83.2	83.2	83.3	45	59.6	0	2	315	0.00	30.007 
12:20	83.4	83.4	83.5	45	59.8	0	2	315	0.00	30.007 
12:25	83.2	83.2	83.3	45	59.6	0	3	315	0.00	30.007 
12:30	83.8	83.8	84.1	46	60.8	0	2	315	0.00	30.001 
12:35	84.1	84.1	84.6	47	61.7	0	2	45	0.00	30.001 
12:40	84.1	84.1	84.3	45	60.4	1	3	22	0.00	30.001 
12:45	83.8	83.8	84.1	46	60.8	0	2	0	0.00	29.995 
12:50	84.1	84.1	83.9	43	59.2	0	4	22	0.00	29.995 
12:55	84.5	84.5	84.1	42	58.9	1	2	22	0.00	29.995 
13:00	84.9	84.9	85.2	45	61.2	0	2	22	0.00	29.997 
13:05	84.9	84.9	84.6	42	59.2	1	3	22	0.00	29.997 
13:10	84.5	84.5	84.3	43	59.5	1	3	292	0.00	29.997 
13:15	84.5	84.5	84.9	46	61.4	0	2	292	0.00	29.995 
13:20	84.1	84.1	84.1	44	59.8	1	3	292	0.00	29.995 
13:25	84.0	84.0	83.8	43	59.1	1	4	315	0.00	29.995 
13:30	84.0	84.0	83.8	43	59.1	1	3	315	0.00	29.994 
13:35	84.1	84.1	83.9	43	59.2	1	4	292	0.00	29.994 
13:40	84.3	84.3	84.3	44	60.0	1	3	292	0.00	29.994 
13:45	84.7	84.7	84.7	44	60.3	1	2	292	0.00	29.992 
13:50	84.7	84.7	84.2	41	58.4	1	3	292	0.00	29.992 
13:55	84.7	84.7	84.2	41	58.4	0	2	292	0.00	29.992 
14:00	84.3	84.3	83.8	41	58.0	0	3	292	0.00	29.984 
14:05	83.6	83.6	83.5	44	59.3	0	2	292	0.00	29.984 
14:10	83.6	83.6	83.7	45	60.0	1	3	292	0.00	29.984 
14:15	84.1	84.1	84.3	45	60.4	0	2	292	0.00	29.981 
14:20	84.1	84.1	84.1	44	59.8	0	1	292	0.00	29.981 
14:25	84.3	84.3	84.9	47	61.8	0	3	292	0.00	29.981 
14:30	84.3	84.3	84.3	44	60.0	1	3	292	0.00	29.979 
14:35	83.8	83.8	84.3	47	61.4	0	2	292	0.00	29.979 
14:40	83.8	83.8	84.1	46	60.8	0	1	0	0.00	29.979 
14:45	83.6	83.6	84.2	48	61.8	0	1	0	0.00	29.980 
14:50	84.0	84.0	85.3	51	63.9	0	2	0	0.00	29.980 
14:55	84.5	84.5	84.7	45	60.8	1	4	292	0.00	29.980 
15:00	84.9	84.9	85.6	47	62.4	1	5	292	0.00	29.978 
15:05	84.7	84.7	85.0	45	61.0	2	4	315	0.00	29.978 
15:10	84.5	84.5	84.9	46	61.4	1	4	292	0.00	29.978 
15:15	84.3	84.3	84.5	45	60.6	1	3	292	0.00	29.978 
15:20	84.0	84.0	84.3	46	61.0	1	3	292	0.00	29.978 
15:25	84.1	84.1	84.6	47	61.7	1	3	315	0.00	29.978 
15:30	84.5	84.5	84.5	44	60.2	1	4	315	0.00	29.969 
15:35	84.7	84.7	84.6	43	59.7	1	3	315	0.00	29.969 
15:40	84.7	84.7	85.4	47	62.2	2	4	315	0.00	29.969 
15:45	84.9	84.9	85.2	45	61.2	1	4	315	0.00	29.965 
15:50	84.5	84.5	84.9	46	61.4	0	2	292	0.00	29.965 
15:55	84.5	84.5	84.3	43	59.5	1	3	292	0.00	29.965 
16:00	84.0	84.0	84.3	46	61.0	1	3	292	0.00	29.961 
16:05	83.8	83.8	84.1	46	60.8	1	2	292	0.00	29.961 
16:10	83.6	83.6	83.7	45	60.0	0	2	292	0.00	29.961 
16:15	83.8	83.8	84.3	47	61.4	0	2	292	0.00	29.955 
16:20	83.8	83.8	84.1	46	60.8	0	2	292	0.00	29.955 
16:25	84.1	84.1	84.1	44	59.8	0	2	292	0.00	29.955 
16:30	84.7	84.7	85.0	45	61.0	2	4	292	0.00	29.951 
16:35	85.1	85.1	85.2	44	60.7	1	6	292	0.00	29.951 
16:40	85.5	85.5	85.3	42	59.8	0	3	292	0.00	29.951 
16:45	85.9	85.9	86.0	43	60.8	0	2	292	0.00	29.944 
16:50	86.3	86.3	86.5	43	61.1	1	3	292	0.00	29.944 
16:55	86.3	86.3	86.5	43	61.1	0	1	292	0.00	29.944 
17:00	86.1	86.1	86.2	43	61.0	0	2	292	0.00	29.945 
17:05	86.1	86.1	86.5	44	61.6	0	2	292	0.00	29.945 
17:10	85.9	85.9	85.7	42	60.1	2	5	292	0.00	29.945 
17:15	85.7	85.7	85.7	43	60.6	1	3	292	0.00	29.942 
17:20	85.9	85.9	86.0	43	60.8	0	1	292	0.00	29.942 
17:25	86.3	86.3	87.0	45	62.4	0	2	112	0.00	29.942 
17:30	86.3	86.3	86.5	43	61.1	0	2	112	0.00	29.932 
17:35	86.1	86.1	87.0	46	62.9	0	1	112	0.00	29.932 
17:40	85.7	85.7	86.2	45	61.9	0	1	112	0.00	29.932 
17:45	85.9	85.9	86.4	45	62.1	0	2	112	0.00	29.931 
17:50	85.7	85.7	85.5	42	59.9	1	3	112	0.00	29.931 
17:55	85.1	85.1	85.4	45	61.3	0	2	112	0.00	29.931 
18:00	84.7	84.7	85.4	47	62.2	0	2	112	0.00	29.930 
18:05	84.5	84.5	84.9	46	61.4	0	1	112	0.00	29.930 
18:10	84.7	84.7	85.4	47	62.2	0	1	112	0.00	29.930 
18:15	84.7	84.7	85.4	47	62.2	0	3	112	0.00	29.920 
18:20	84.5	84.5	84.9	46	61.4	0	1	112	0.00	29.920 
18:25	84.3	84.3	84.7	46	61.2	0	1	112	0.00	29.920 
18:30	84.0	84.0	84.3	46	61.0	0	0	---	0.00	29.921 
18:35	84.0	84.0	84.3	46	61.0	0	1	112	0.00	29.921 
18:40	84.0	84.0	84.3	46	61.0	0	1	112	0.00	29.921 
18:45	84.0	84.0	84.5	47	61.6	0	1	112	0.00	29.926 
18:50	84.1	84.1	84.4	46	61.1	0	1	112	0.00	29.926 
18:55	84.1	84.1	84.4	46	61.1	1	3	112	0.00	29.926 
19:00	84.0	84.0	84.3	46	61.0	0	1	112	0.00	29.923 
19:05	84.0	84.0	84.5	47	61.6	0	1	112	0.00	29.923 
19:10	83.8	83.8	84.7	49	62.6	0	1	112	0.00	29.923 
19:15	83.6	83.6	84.1	47	61.2	0	0	---	0.00	29.919 
19:20	83.4	83.4	83.7	46	60.4	0	1	112	0.00	29.919 
19:25	83.2	83.2	83.6	47	60.8	0	2	112	0.00	29.919 
19:30	83.2	83.2	83.8	48	61.4	0	0	---	0.00	29.919 
19:35	83.0	83.0	83.5	48	61.3	0	0	---	0.00	29.919 
19:40	82.8	82.8	83.3	48	61.1	0	1	112	0.00	29.919 
19:45	82.6	82.6	83.1	48	60.9	0	1	112	0.00	29.918 
19:50	82.4	82.4	83.0	49	61.3	0	0	---	0.00	29.918 
19:55	82.2	82.2	82.8	49	61.1	0	1	112	0.00	29.918 
20:00	82.2	82.2	83.0	50	61.7	0	0	---	0.00	29.927 
20:05	82.0	82.0	82.8	50	61.5	0	0	---	0.00	29.927 
20:10	81.8	81.8	82.7	51	61.9	0	0	---	0.00	29.927 
20:15	81.8	81.8	82.6	50	61.3	0	0	---	0.00	29.919 
20:20	81.6	81.6	82.6	52	62.2	0	0	---	0.00	29.919 
20:25	81.4	81.4	82.4	52	62.1	0	0	---	0.00	29.919 
20:30	81.1	81.1	82.2	53	62.3	0	0	---	0.00	29.921 
20:35	80.9	80.9	82.0	53	62.1	0	0	---	0.00	29.921 
20:40	80.7	80.7	81.9	54	62.5	0	0	---	0.00	29.921 
20:45	80.3	80.3	81.5	54	62.1	0	0	---	0.00	29.922 
20:50	80.1	80.1	81.4	55	62.4	0	0	---	0.00	29.922 
20:55	79.8	79.8	81.0	54	61.7	0	0	---	0.00	29.922 
21:00	79.6	79.6	80.9	55	62.0	0	0	---	0.00	29.920 
21:05	79.2	79.2	80.6	56	62.1	0	0	---	0.00	29.920 
21:10	78.8	78.8	80.3	58	62.8	0	0	---	0.00	29.920 
21:15	78.5	78.5	80.0	58	62.5	0	0	---	0.00	29.918 
21:20	78.1	78.1	79.7	58	62.1	0	0	---	0.00	29.918 
21:25	77.7	77.7	79.4	59	62.2	0	0	---	0.00	29.918 
21:30	77.4	77.4	79.1	60	62.4	0	0	---	0.00	29.917 
21:35	77.2	77.2	78.9	60	62.2	0	0	---	0.00	29.917 
21:40	76.8	76.8	78.6	61	62.3	0	0	---	0.00	29.917 
21:45	76.5	76.5	78.4	62	62.5	0	0	---	0.00	29.924 
21:50	76.1	76.1	78.0	63	62.6	0	0	---	0.00	29.924 
21:55	75.8	75.8	77.7	64	62.7	0	0	---	0.00	29.924 
22:00	75.4	75.4	77.4	65	62.8	0	0	---	0.00	29.928 
22:05	75.3	75.3	77.2	66	63.1	0	0	---	0.00	29.928 
22:10	74.9	74.9	74.9	67	63.2	0	0	---	0.00	29.928 
22:15	74.7	74.7	74.7	68	63.4	0	0	---	0.00	29.925 
22:20	74.4	74.4	74.4	69	63.5	0	0	---	0.00	29.925 
22:25	74.2	74.2	74.2	70	63.8	0	0	---	0.00	29.925 
22:30	73.9	73.9	73.9	71	63.9	0	0	---	0.00	29.927 
22:35	73.7	73.7	73.7	71	63.7	0	0	---	0.00	29.927 
22:40	73.5	73.5	73.5	71	63.5	0	0	---	0.00	29.927 
22:45	73.3	73.3	73.3	72	63.7	0	0	---	0.00	29.927 
22:50	73.2	73.2	73.2	73	64.0	0	0	---	0.00	29.927 
22:55	72.8	72.8	72.8	72	63.2	0	0	---	0.00	29.927 
23:00	72.7	72.7	72.7	73	63.5	0	0	---	0.00	29.929 
23:05	72.5	72.5	72.5	73	63.3	0	0	---	0.00	29.929 
23:10	72.3	72.3	72.3	73	63.1	0	0	---	0.00	29.929 
23:15	72.1	72.1	72.1	74	63.3	0	0	---	0.00	29.931 
23:20	72.0	72.0	72.0	75	63.6	0	0	---	0.00	29.931 
23:25	71.8	71.8	71.8	75	63.4	0	0	---	0.00	29.931 
23:30	71.6	71.6	71.6	76	63.6	0	0	---	0.00	29.928 
23:35	71.5	71.5	71.5	77	63.9	0	0	---	0.00	29.928 
23:40	71.3	71.3	71.3	77	63.7	0	0	---	0.00	29.928 
23:45	71.1	71.1	71.1	78	63.9	0	0	---	0.00	29.926 
23:50	70.9	70.9	70.9	78	63.7	0	0	---	0.00	29.926 
23:55	70.8	70.8	70.8	78	63.6	0	0	---	0.00	29.926 

CoCoRaHS
IN-AL-39
A2 Web Hosting
Creative Commons License
GoDaddy
search engine by freefind advanced

loaded 2018-11-16 01:11:12 • last modified 2010-11-18 10:43:29
Privacy PolicyDisclaimer
• wx.awcolley.com is powered by PmWiki v.2002016 •
• all content (unless otherwise noted) © 2018 A W Colley